Time,TemperatureF,DewpointF,PressureIn,WindDirection,WindDirectionDegrees,WindSpeedMPH,WindSpeedGustMPH,Humidity,HourlyPrecipIn,Conditions,Clouds,dailyrainin,SoftwareType,DateUTC
2013-03-28 07:50:00,80.9,72.2,29.96,East,99,3.0,3.0,75,0.00,,,0.00,Wunderground v.1.15,2013-03-28 11:50:00,
2013-03-28 08:00:00,81.1,71.6,29.96,East,95,5.0,5.0,73,0.00,,,0.00,Wunderground v.1.15,2013-03-28 12:00:00,
2013-03-28 08:10:00,81.8,71.9,29.97,ENE,63,4.0,4.0,72,0.00,,,0.00,Wunderground v.1.15,2013-03-28 12:10:00,
2013-03-28 08:20:00,82.4,72.5,29.97,SE,132,5.0,6.0,72,0.00,,,0.00,Wunderground v.1.15,2013-03-28 12:20:00,
2013-03-28 08:30:00,82.6,72.2,29.97,ESE,112,5.0,5.0,71,0.00,,,0.00,Wunderground v.1.15,2013-03-28 12:30:00,
2013-03-28 08:40:00,82.2,71.9,29.98,ESE,114,5.0,5.0,71,0.00,,,0.00,Wunderground v.1.15,2013-03-28 12:40:00,
2013-03-28 08:50:00,82.8,72.8,29.99,SE,124,5.0,5.0,72,0.00,,,0.00,Wunderground v.1.15,2013-03-28 12:50:00,
2013-03-28 09:00:00,83.6,72.8,29.99,East,96,6.0,9.0,70,0.00,,,0.00,Wunderground v.1.15,2013-03-28 13:00:00,
2013-03-28 09:10:00,83.6,72.3,29.99,ESE,109,7.0,7.0,69,0.00,,,0.00,Wunderground v.1.15,2013-03-28 13:10:00,
2013-03-28 09:20:00,83.8,72.5,29.99,East,96,7.0,7.0,69,0.00,,,0.00,Wunderground v.1.15,2013-03-28 13:20:00,
2013-03-28 09:30:00,84.3,72.6,29.99,ESE,103,6.0,6.0,68,0.00,,,0.00,Wunderground v.1.15,2013-03-28 13:30:00,
2013-03-28 09:40:00,84.5,72.8,30.00,East,91,6.0,6.0,68,0.00,,,0.00,Wunderground v.1.15,2013-03-28 13:40:00,
2013-03-28 09:50:00,84.5,72.8,30.00,East,94,6.0,6.0,68,0.00,,,0.00,Wunderground v.1.15,2013-03-28 13:50:00,
2013-03-28 10:00:00,84.0,72.3,30.00,ENE,69,8.0,9.0,68,0.00,,,0.00,Wunderground v.1.15,2013-03-28 14:00:00,
2013-03-28 10:10:00,84.5,72.3,30.00,East,84,7.0,10.0,67,0.00,,,0.00,Wunderground v.1.15,2013-03-28 14:10:00,
2013-03-28 10:20:00,84.9,72.3,30.00,East,87,7.0,7.0,66,0.00,,,0.00,Wunderground v.1.15,2013-03-28 14:20:00,
2013-03-28 10:30:00,84.9,72.3,30.00,East,96,8.0,8.0,66,0.00,,,0.00,Wunderground v.1.15,2013-03-28 14:30:00,
2013-03-28 10:40:00,84.9,72.7,30.00,ESE,120,8.0,9.0,67,0.00,,,0.00,Wunderground v.1.15,2013-03-28 14:40:00,
2013-03-28 10:50:00,83.6,72.3,30.00,ESE,106,7.0,7.0,69,0.00,,,0.00,Wunderground v.1.15,2013-03-28 14:50:00,
2013-03-28 11:00:00,83.4,73.0,30.00,ESE,105,8.0,10.0,71,0.00,,,0.00,Wunderground v.1.15,2013-03-28 15:00:00,
2013-03-28 11:10:00,84.3,72.1,30.00,East,88,9.0,9.0,67,0.00,,,0.00,Wunderground v.1.15,2013-03-28 15:10:00,
2013-03-28 11:20:00,83.8,72.1,29.99,ESE,103,7.0,10.0,68,0.00,,,0.00,Wunderground v.1.15,2013-03-28 15:20:00,
2013-03-28 11:30:00,84.5,72.3,29.99,ENE,75,9.0,9.0,67,0.00,,,0.00,Wunderground v.1.15,2013-03-28 15:30:00,
2013-03-28 11:40:00,84.5,72.8,29.99,East,82,10.0,10.0,68,0.00,,,0.00,Wunderground v.1.15,2013-03-28 15:40:00,
2013-03-28 11:50:00,85.5,71.9,29.98,East,85,7.0,7.0,64,0.00,,,0.00,Wunderground v.1.15,2013-03-28 15:50:00,
2013-03-28 12:00:00,84.0,71.9,29.98,ENE,76,8.0,8.0,67,0.00,,,0.00,Wunderground v.1.15,2013-03-28 16:00:00,
2013-03-28 12:10:00,83.0,72.2,29.99,ENE,76,8.0,8.0,70,0.00,,,0.00,Wunderground v.1.15,2013-03-28 16:10:00,
2013-03-28 12:20:00,82.6,72.2,29.98,ENE,78,8.0,8.0,71,0.00,,,0.00,Wunderground v.1.15,2013-03-28 16:20:00,
2013-03-28 12:30:00,83.4,72.6,29.98,East,98,9.0,10.0,70,0.00,,,0.00,Wunderground v.1.15,2013-03-28 16:30:00,
2013-03-28 12:40:00,82.6,72.2,29.98,East,96,8.0,11.0,71,0.00,,,0.00,Wunderground v.1.15,2013-03-28 16:40:00,
2013-03-28 12:50:00,83.8,72.1,29.98,East,96,9.0,14.0,68,0.00,,,0.00,Wunderground v.1.15,2013-03-28 16:50:00,
2013-03-28 13:00:00,83.2,72.4,29.98,East,101,9.0,9.0,70,0.00,,,0.00,Wunderground v.1.15,2013-03-28 17:00:00,
2013-03-28 13:10:00,84.7,73.0,29.97,ESE,117,8.0,10.0,68,0.00,,,0.00,Wunderground v.1.15,2013-03-28 17:10:00,
2013-03-28 13:20:00,84.1,72.8,29.96,East,92,8.0,8.0,69,0.00,,,0.00,Wunderground v.1.15,2013-03-28 17:20:00,
2013-03-28 13:30:00,85.3,72.6,29.96,East,100,7.0,7.0,66,0.00,,,0.00,Wunderground v.1.15,2013-03-28 17:30:00,
2013-03-28 13:40:00,84.5,72.8,29.96,ESE,113,8.0,8.0,68,0.00,,,0.00,Wunderground v.1.15,2013-03-28 17:40:00,
2013-03-28 13:50:00,84.1,72.4,29.95,ENE,61,7.0,7.0,68,0.00,,,0.00,Wunderground v.1.15,2013-03-28 17:50:00,
2013-03-28 14:00:00,84.5,72.3,29.95,ESE,116,8.0,8.0,67,0.00,,,0.00,Wunderground v.1.15,2013-03-28 18:00:00,
2013-03-28 14:10:00,84.9,72.7,29.95,ENE,78,8.0,8.0,67,0.00,,,0.00,Wunderground v.1.15,2013-03-28 18:10:00,
2013-03-28 14:20:00,84.1,72.4,29.94,East,92,7.0,7.0,68,0.00,,,0.00,Wunderground v.1.15,2013-03-28 18:20:00,
2013-03-28 14:30:00,84.7,72.1,29.94,ESE,114,6.0,9.0,66,0.00,,,0.00,Wunderground v.1.15,2013-03-28 18:30:00,
2013-03-28 14:40:00,84.9,72.3,29.93,East,97,6.0,11.0,66,0.00,,,0.00,Wunderground v.1.15,2013-03-28 18:40:00,
2013-03-28 14:50:00,84.5,72.3,29.93,NE,47,8.0,8.0,67,0.00,,,0.00,Wunderground v.1.15,2013-03-28 18:50:00,
2013-03-28 15:00:00,83.8,72.1,29.93,East,85,8.0,10.0,68,0.00,,,0.00,Wunderground v.1.15,2013-03-28 19:00:00,
2013-03-28 15:10:00,84.3,72.1,29.93,East,89,7.0,7.0,67,0.00,,,0.00,Wunderground v.1.15,2013-03-28 19:10:00,
2013-03-28 15:20:00,84.3,72.1,29.92,ENE,71,7.0,9.0,67,0.00,,,0.00,Wunderground v.1.15,2013-03-28 19:20:00,
2013-03-28 15:30:00,84.1,72.0,29.92,ENE,78,8.0,10.0,67,0.00,,,0.00,Wunderground v.1.15,2013-03-28 19:30:00,
2013-03-28 15:40:00,83.8,72.1,29.92,ENE,74,9.0,9.0,68,0.00,,,0.00,Wunderground v.1.15,2013-03-28 19:40:00,
2013-03-28 15:50:00,83.2,72.0,29.92,ESE,117,7.0,7.0,69,0.00,,,0.00,Wunderground v.1.15,2013-03-28 19:50:00,
2013-03-28 16:00:00,83.8,72.1,29.92,ESE,116,7.0,10.0,68,0.00,,,0.00,Wunderground v.1.15,2013-03-28 20:00:00,
2013-03-28 16:10:00,83.8,71.7,29.92,East,94,7.0,7.0,67,0.00,,,0.00,Wunderground v.1.15,2013-03-28 20:10:00,
2013-03-28 16:20:00,83.6,71.5,29.92,ENE,71,7.0,7.0,67,0.00,,,0.00,Wunderground v.1.15,2013-03-28 20:20:00,
2013-03-28 16:30:00,83.2,71.1,29.92,ESE,115,6.0,6.0,67,0.00,,,0.00,Wunderground v.1.15,2013-03-28 20:30:00,
2013-03-28 16:40:00,82.8,71.6,29.92,East,88,7.0,7.0,69,0.00,,,0.00,Wunderground v.1.15,2013-03-28 20:40:00,
2013-03-28 16:50:00,82.6,71.0,29.93,ESE,105,6.0,6.0,68,0.00,,,0.00,Wunderground v.1.15,2013-03-28 20:50:00,
2013-03-28 17:00:00,82.4,71.2,29.93,East,81,6.0,9.0,69,0.00,,,0.00,Wunderground v.1.15,2013-03-28 21:00:00,
2013-03-28 17:10:00,82.0,71.2,29.93,ENE,74,6.0,7.0,70,0.00,,,0.00,Wunderground v.1.15,2013-03-28 21:10:00,
2013-03-28 17:20:00,81.6,70.9,29.93,East,84,5.0,10.0,70,0.00,,,0.00,Wunderground v.1.15,2013-03-28 21:20:00,
2013-03-28 17:30:00,81.2,70.9,29.93,ESE,119,6.0,6.0,71,0.00,,,0.00,Wunderground v.1.15,2013-03-28 21:30:00,
2013-03-28 17:40:00,81.1,71.2,29.93,East,91,5.0,5.0,72,0.00,,,0.00,Wunderground v.1.15,2013-03-28 21:40:00,
2013-03-28 17:50:00,80.5,70.6,29.94,East,86,6.0,6.0,72,0.00,,,0.00,Wunderground v.1.15,2013-03-28 21:50:00,
2013-03-28 18:00:00,79.9,70.9,29.94,ESE,104,5.0,5.0,74,0.00,,,0.00,Wunderground v.1.15,2013-03-28 22:00:00,
2013-03-28 18:10:00,79.6,70.6,29.95,ENE,59,4.0,4.0,74,0.00,,,0.00,Wunderground v.1.15,2013-03-28 22:10:00,
2013-03-28 18:20:00,79.0,70.0,29.95,ENE,67,4.0,6.0,74,0.00,,,0.00,Wunderground v.1.15,2013-03-28 22:20:00,
2013-03-28 18:30:00,78.6,70.0,29.95,ENE,76,4.0,4.0,75,0.00,,,0.00,Wunderground v.1.15,2013-03-28 22:30:00,
2013-03-28 18:40:00,78.5,70.3,29.95,ENE,62,3.0,3.0,76,0.00,,,0.00,Wunderground v.1.15,2013-03-28 22:40:00,
2013-03-28 18:50:00,78.1,69.9,29.95,ENE,61,3.0,4.0,76,0.00,,,0.00,Wunderground v.1.15,2013-03-28 22:50:00,
2013-03-28 19:00:00,77.7,69.9,29.95,ENE,66,3.0,3.0,77,0.00,,,0.00,Wunderground v.1.15,2013-03-28 23:00:00,
2013-03-28 19:10:00,77.4,69.6,29.96,ENE,57,3.0,3.0,77,0.00,,,0.00,Wunderground v.1.15,2013-03-28 23:10:00,
2013-03-28 19:20:00,77.0,69.2,29.96,ENE,58,3.0,3.0,77,0.00,,,0.00,Wunderground v.1.15,2013-03-28 23:20:00,
2013-03-28 19:30:00,77.0,69.6,29.96,NE,55,3.0,3.0,78,0.00,,,0.00,Wunderground v.1.15,2013-03-28 23:30:00,
2013-03-28 19:40:00,76.8,69.8,29.97,NE,53,2.0,2.0,79,0.00,,,0.00,Wunderground v.1.15,2013-03-28 23:40:00,
2013-03-28 19:50:00,76.8,69.8,29.97,NE,54,3.0,4.0,79,0.00,,,0.00,Wunderground v.1.15,2013-03-28 23:50:00,
2013-03-28 20:00:00,76.7,70.1,29.97,NE,53,3.0,3.0,80,0.00,,,0.00,Wunderground v.1.15,2013-03-29 00:00:00,